Time;durP1;ratioP1;P1;durP2;ratioP2;P2;SDS_P1;SDS_P2;PMS_P1;PMS_P2;Temp;Humidity;BMP_temperature;BMP_pressure;BME280_temperature;BME280_humidity;BME280_pressure;Samples;Min_cycle;Max_cycle;Signal;HPM_P1;HPM_P2
2023/12/18 00:01:28;;;;;;;14.73;8.02;;;8.70;99.90;;;;;;4951228;28;20132;-86
2023/12/18 00:03:54;;;;;;;;;;;8.80;99.90;;;;;;4969566;28;20035;-87
2023/12/18 00:06:20;;;;;;;20.77;9.35;;;8.80;99.90;;;;;;4955563;28;19906;-86
2023/12/18 00:08:45;;;;;;;17.80;9.38;;;8.80;99.90;;;;;;4963046;28;20046;-86
2023/12/18 00:11:11;;;;;;;19.67;9.27;;;8.70;99.90;;;;;;4971473;28;20034;-85
2023/12/18 00:13:37;;;;;;;19.30;10.18;;;8.70;99.90;;;;;;4956374;28;20488;-87
2023/12/18 00:16:02;;;;;;;20.48;10.20;;;8.70;99.90;;;;;;4954525;28;20025;-86
2023/12/18 00:18:28;;;;;;;19.42;9.77;;;8.70;99.90;;;;;;4953890;28;20037;-88
2023/12/18 00:20:54;;;;;;;19.80;9.77;;;8.70;99.90;;;;;;4963765;28;20031;-87
2023/12/18 00:23:19;;;;;;;18.40;9.65;;;8.70;99.90;;;;;;4953633;28;20023;-86
2023/12/18 00:25:45;;;;;;;22.58;11.80;;;8.70;99.90;;;;;;4969280;28;20081;-86
2023/12/18 00:28:10;;;;;;;20.20;10.25;;;8.70;99.90;;;;;;4969011;28;20030;-86
2023/12/18 00:30:36;;;;;;;24.75;11.85;;;8.70;99.90;;;;;;4954922;28;20022;-88
2023/12/18 00:33:02;;;;;;;22.17;11.27;;;8.70;99.90;;;;;;4957025;28;20081;-87
2023/12/18 00:35:28;;;;;;;25.15;11.20;;;8.70;99.90;;;;;;4972724;28;20025;-88
2023/12/18 00:37:54;;;;;;;22.92;11.85;;;8.70;99.90;;;;;;4972332;28;20022;-87
2023/12/18 00:40:19;;;;;;;26.30;12.05;;;8.70;99.90;;;;;;4967017;28;20066;-87
2023/12/18 00:42:47;;;;;;;24.85;11.32;;;8.70;99.90;;;;;;4967822;28;20018;-87
2023/12/18 00:45:15;;;;;;;27.40;12.88;;;8.70;99.90;;;;;;4971974;28;20034;-86
2023/12/18 00:47:40;;;;;;;21.05;11.60;;;8.70;99.90;;;;;;4970367;28;20031;-87
2023/12/18 00:50:09;;;;;;;26.40;12.18;;;8.70;99.90;;;;;;4964708;28;20027;-87
2023/12/18 00:52:38;;;;;;;21.35;11.52;;;8.70;99.90;;;;;;4953072;28;20064;-87
2023/12/18 00:55:04;;;;;;;28.27;11.18;;;8.70;99.90;;;;;;4967944;28;20543;-86
2023/12/18 00:57:30;;;;;;;21.60;11.40;;;8.70;99.90;;;;;;4970693;28;20023;-88
2023/12/18 00:59:55;;;;;;;21.02;11.25;;;8.70;99.90;;;;;;4970230;28;20019;-86
2023/12/18 01:02:21;;;;;;;22.85;12.05;;;8.70;99.90;;;;;;4961562;28;20027;-87
2023/12/18 01:04:47;;;;;;;25.13;12.20;;;8.70;99.90;;;;;;4971602;28;20041;-86
2023/12/18 01:07:12;;;;;;;23.63;11.43;;;8.70;99.90;;;;;;4954369;28;20023;-87
2023/12/18 01:09:38;;;;;;;22.33;11.35;;;8.70;99.90;;;;;;4969861;28;20102;-87
2023/12/18 01:12:04;;;;;;;22.23;11.07;;;8.70;99.90;;;;;;4956299;28;20027;-87
2023/12/18 01:14:29;;;;;;;21.40;10.10;;;8.70;99.90;;;;;;4974086;28;20489;-87
2023/12/18 01:16:55;;;;;;;21.52;11.32;;;8.60;99.90;;;;;;4974764;28;20025;-88
2023/12/18 01:19:21;;;;;;;20.00;10.82;;;8.70;99.90;;;;;;4957802;28;20045;-87
2023/12/18 01:21:46;;;;;;;17.52;10.05;;;8.70;99.90;;;;;;4959984;28;20019;-87
2023/12/18 01:24:12;;;;;;;18.73;9.73;;;8.70;99.90;;;;;;4975125;28;20059;-86
2023/12/18 01:26:38;;;;;;;19.45;9.70;;;8.70;99.90;;;;;;4974817;28;20455;-86
2023/12/18 01:29:04;;;;;;;17.17;9.13;;;8.60;99.90;;;;;;4962863;28;20082;-86
2023/12/18 01:31:30;;;;;;;16.00;8.57;;;8.60;99.90;;;;;;4957168;28;20027;-86
2023/12/18 01:33:57;;;;;;;16.65;8.77;;;8.70;99.90;;;;;;4961151;28;20400;-87
2023/12/18 01:36:22;;;;;;;16.23;9.32;;;8.70;99.90;;;;;;4974495;28;20378;-87
2023/12/18 01:38:48;;;;;;;16.08;8.57;;;8.70;99.90;;;;;;4974661;28;20018;-87
2023/12/18 01:41:13;;;;;;;18.58;8.25;;;8.60;99.90;;;;;;4957031;28;20110;-87
2023/12/18 01:43:39;;;;;;;15.77;7.65;;;8.60;99.90;;;;;;4974461;28;20114;-87
2023/12/18 01:46:05;;;;;;;12.32;7.15;;;8.70;99.90;;;;;;4957539;28;20026;-87
2023/12/18 01:48:32;;;;;;;14.88;7.50;;;8.60;99.90;;;;;;4973116;28;20034;-87
2023/12/18 01:50:59;;;;;;;13.85;7.93;;;8.60;99.90;;;;;;4958349;28;20500;-87
2023/12/18 01:53:45;;;;;;;16.63;7.93;;;8.70;99.90;;;;;;4974666;28;20384;-87
2023/12/18 01:56:14;;;;;;;15.15;6.72;;;8.70;99.90;;;;;;4957071;28;20030;-86
2023/12/18 01:58:41;;;;;;;16.15;7.97;;;8.70;99.90;;;;;;4973324;28;20151;-87
2023/12/18 02:01:08;;;;;;;13.32;6.68;;;8.60;99.90;;;;;;4972825;28;20073;-87
2023/12/18 02:03:34;;;;;;;13.50;7.82;;;8.70;99.90;;;;;;4974013;28;20730;-87
2023/12/18 02:06:00;;;;;;;13.07;7.15;;;8.60;99.90;;;;;;4974510;28;20467;-87
2023/12/18 02:08:27;;;;;;;13.98;7.53;;;8.60;99.90;;;;;;4972949;28;20027;-87
2023/12/18 02:10:53;;;;;;;14.48;7.85;;;8.60;99.90;;;;;;4956705;28;20029;-87
2023/12/18 02:13:18;;;;;;;14.70;7.70;;;8.60;99.90;;;;;;4974735;28;20026;-88
2023/12/18 02:15:44;;;;;;;16.20;7.45;;;8.60;99.90;;;;;;4974452;28;20021;-88
2023/12/18 02:18:10;;;;;;;15.05;7.72;;;8.60;99.90;;;;;;4974032;28;20027;-87
2023/12/18 02:20:35;;;;;;;14.15;7.35;;;8.60;99.90;;;;;;4974575;28;20047;-87
2023/12/18 02:23:01;;;;;;;15.38;7.50;;;8.60;99.90;;;;;;4965698;28;20019;-88
2023/12/18 02:25:27;;;;;;;18.45;7.43;;;8.60;99.90;;;;;;4971838;28;20031;-87
2023/12/18 02:27:53;;;;;;;14.27;7.40;;;8.60;99.90;;;;;;4973838;28;20433;-87
2023/12/18 02:30:24;;;;;;;16.40;7.55;;;8.60;99.90;;;;;;4956747;28;20054;-87
2023/12/18 02:32:50;;;;;;;13.98;7.53;;;8.60;99.90;;;;;;4956153;28;20507;-87
2023/12/18 02:35:16;;;;;;;14.57;7.93;;;8.60;99.90;;;;;;4973766;28;20178;-86
2023/12/18 02:37:41;;;;;;;17.30;7.68;;;8.60;99.90;;;;;;4955448;28;20027;-85
2023/12/18 02:40:07;;;;;;;15.40;7.50;;;8.60;99.90;;;;;;4958566;28;20031;-87
2023/12/18 02:42:32;;;;;;;16.27;7.30;;;8.60;99.90;;;;;;4957555;28;20393;-86
2023/12/18 02:44:58;;;;;;;16.50;8.05;;;8.60;99.90;;;;;;4973690;28;20392;-86
2023/12/18 02:47:24;;;;;;;13.70;7.18;;;8.60;99.90;;;;;;4973439;28;20499;-86
2023/12/18 02:49:49;;;;;;;14.32;7.15;;;8.60;99.90;;;;;;4973213;28;20026;-85
2023/12/18 02:52:15;;;;;;;15.25;7.20;;;8.60;99.90;;;;;;4971760;28;20034;-87
2023/12/18 02:54:41;;;;;;;17.08;7.43;;;8.60;99.90;;;;;;4977839;28;20127;-87
2023/12/18 02:57:06;;;;;;;17.02;8.05;;;8.60;99.90;;;;;;4973103;28;20455;-87
2023/12/18 02:59:32;;;;;;;14.45;7.22;;;8.70;99.90;;;;;;4973208;28;20105;-85
2023/12/18 03:01:57;;;;;;;14.52;7.40;;;8.60;99.90;;;;;;4973114;28;20098;-87
2023/12/18 03:04:23;;;;;;;15.93;7.45;;;8.60;99.90;;;;;;4969626;28;20085;-86
2023/12/18 03:06:49;;;;;;;16.08;7.18;;;8.60;99.90;;;;;;4952807;28;20018;-87
2023/12/18 03:09:15;;;;;;;15.30;6.57;;;8.60;99.90;;;;;;4969760;28;20026;-86
2023/12/18 03:11:41;;;;;;;14.38;6.93;;;8.60;99.90;;;;;;4956146;28;20026;-87
2023/12/18 03:14:07;;;;;;;15.20;7.13;;;8.60;99.90;;;;;;4963724;28;20023;-87
2023/12/18 03:16:33;;;;;;;14.98;6.70;;;8.60;99.90;;;;;;4971610;28;20035;-87
2023/12/18 03:18:59;;;;;;;13.90;7.45;;;8.60;99.90;;;;;;4955783;28;20025;-87
2023/12/18 03:21:24;;;;;;;15.65;7.75;;;8.60;99.90;;;;;;4954305;28;20019;-87
2023/12/18 03:23:50;;;;;;;16.80;7.47;;;8.60;99.90;;;;;;4969828;28;20026;-87
2023/12/18 03:26:15;;;;;;;18.77;7.63;;;8.60;99.90;;;;;;4949245;28;20023;-87
2023/12/18 03:28:41;;;;;;;16.35;7.90;;;8.60;99.90;;;;;;4967865;28;20039;-87
2023/12/18 03:31:06;;;;;;;16.25;7.85;;;8.60;99.90;;;;;;4966217;28;20030;-85
2023/12/18 03:33:32;;;;;;;15.48;7.22;;;8.60;99.90;;;;;;4955888;28;20397;-86
2023/12/18 03:35:57;;;;;;;15.82;7.53;;;8.60;99.90;;;;;;4970739;28;20027;-87
2023/12/18 03:38:24;;;;;;;15.65;8.38;;;8.60;99.90;;;;;;4972955;28;20054;-85
2023/12/18 03:40:50;;;;;;;16.90;8.13;;;8.60;99.90;;;;;;4972152;28;20069;-87
2023/12/18 03:43:15;;;;;;;14.43;7.65;;;8.60;99.90;;;;;;4970212;28;20188;-87
2023/12/18 03:45:41;;;;;;;17.45;8.20;;;8.60;99.90;;;;;;4972266;28;20023;-86
2023/12/18 03:48:07;;;;;;;18.88;8.55;;;8.60;99.90;;;;;;4955408;28;20046;-87
2023/12/18 03:50:32;;;;;;;19.27;8.32;;;8.60;99.90;;;;;;4958150;28;20097;-88
2023/12/18 03:52:58;;;;;;;20.48;9.25;;;8.60;99.90;;;;;;4955121;28;20026;-86
2023/12/18 03:55:23;;;;;;;15.85;7.82;;;8.50;99.90;;;;;;4969860;28;20027;-86
2023/12/18 03:57:49;;;;;;;14.75;7.70;;;8.50;99.90;;;;;;4971519;28;20023;-86
2023/12/18 04:00:16;;;;;;;15.38;7.20;;;8.60;99.90;;;;;;4971859;28;20110;-87
2023/12/18 04:02:41;;;;;;;14.63;7.50;;;8.60;99.90;;;;;;4959729;28;20019;-87
2023/12/18 04:05:07;;;;;;;15.00;7.95;;;8.60;99.90;;;;;;4960177;28;20045;-85
2023/12/18 04:07:33;;;;;;;19.38;8.20;;;8.60;99.90;;;;;;4949141;28;20027;-85
2023/12/18 04:09:58;;;;;;;14.90;8.40;;;8.60;99.90;;;;;;4968692;28;20030;-87
2023/12/18 04:12:24;;;;;;;14.60;7.38;;;8.60;99.90;;;;;;4971932;28;20481;-86
2023/12/18 04:14:49;;;;;;;14.93;7.30;;;8.60;99.90;;;;;;4971948;28;20149;-86
2023/12/18 04:17:15;;;;;;;16.25;7.10;;;8.60;99.90;;;;;;4972198;28;20023;-87
2023/12/18 04:19:40;;;;;;;21.40;9.13;;;8.60;99.90;;;;;;4969797;28;20766;-87
2023/12/18 04:22:06;;;;;;;15.88;7.88;;;8.50;99.90;;;;;;4951198;28;20086;-87
2023/12/18 04:24:31;;;;;;;17.52;8.00;;;8.50;99.90;;;;;;4952359;28;20030;-87
2023/12/18 04:26:57;;;;;;;20.00;8.40;;;8.50;99.90;;;;;;4971925;28;20019;-87
2023/12/18 04:29:22;;;;;;;19.83;8.80;;;8.50;99.90;;;;;;4954845;28;20109;-87
2023/12/18 04:31:51;;;;;;;19.10;8.43;;;8.50;99.90;;;;;;4954862;28;20042;-88
2023/12/18 04:34:17;;;;;;;18.55;8.60;;;8.50;99.90;;;;;;4971933;28;20054;-86
2023/12/18 04:36:43;;;;;;;17.17;8.75;;;8.50;99.90;;;;;;4963660;28;20050;-87
2023/12/18 04:39:10;;;;;;;18.38;7.70;;;8.50;99.90;;;;;;4971460;28;20030;-86
2023/12/18 04:41:35;;;;;;;15.77;7.90;;;8.50;99.90;;;;;;4954360;28;20034;-86
2023/12/18 04:44:01;;;;;;;17.80;8.18;;;8.60;99.90;;;;;;4971814;28;20019;-87
2023/12/18 04:46:27;;;;;;;21.52;8.57;;;8.60;99.90;;;;;;4953582;28;20493;-87
2023/12/18 04:48:52;;;;;;;18.00;8.80;;;8.60;99.90;;;;;;4975284;28;20122;-86
2023/12/18 04:51:18;;;;;;;17.30;8.32;;;8.60;99.90;;;;;;4966339;28;20034;-87
2023/12/18 04:53:43;;;;;;;17.00;8.35;;;8.60;99.90;;;;;;4957605;28;20038;-87
2023/12/18 04:56:09;;;;;;;18.88;8.15;;;8.60;99.90;;;;;;4971537;28;20074;-85
2023/12/18 04:58:35;;;;;;;14.10;7.93;;;8.60;99.90;;;;;;4975756;28;20105;-85
2023/12/18 05:01:02;;;;;;;20.27;8.90;;;8.60;99.90;;;;;;4966132;28;20067;-85
2023/12/18 05:03:28;;;;;;;15.40;7.97;;;8.50;99.90;;;;;;4954768;29;20032;-87
2023/12/18 05:05:53;;;;;;;17.95;7.47;;;8.50;99.90;;;;;;4951442;28;20029;-87
2023/12/18 05:08:19;;;;;;;16.10;7.30;;;8.60;99.90;;;;;;4973382;28;20023;-85
2023/12/18 05:10:44;;;;;;;15.18;8.15;;;8.60;99.90;;;;;;4974168;28;20030;-86
2023/12/18 05:13:10;;;;;;;15.27;8.13;;;8.50;99.90;;;;;;4975483;28;20049;-87
2023/12/18 05:15:36;;;;;;;15.73;7.22;;;8.60;99.90;;;;;;4958237;28;20027;-87
2023/12/18 05:18:01;;;;;;;15.98;7.75;;;8.50;99.90;;;;;;4957596;28;20446;-87
2023/12/18 05:20:27;;;;;;;14.85;7.28;;;8.50;99.90;;;;;;4956077;28;20482;-88
2023/12/18 05:22:52;;;;;;;11.80;6.65;;;8.50;99.90;;;;;;4971165;28;20113;-87
2023/12/18 05:25:18;;;;;;;11.70;7.03;;;8.60;99.90;;;;;;4962284;28;20122;-86
2023/12/18 05:27:44;;;;;;;17.85;8.25;;;8.50;99.90;;;;;;4961231;28;20085;-85
2023/12/18 05:30:10;;;;;;;14.90;7.45;;;8.50;99.90;;;;;;4955601;28;20077;-86
2023/12/18 05:32:35;;;;;;;16.17;7.75;;;8.50;99.90;;;;;;4974766;28;20043;-86
2023/12/18 05:35:01;;;;;;;15.00;7.63;;;8.50;99.90;;;;;;4963069;28;20015;-87
2023/12/18 05:37:26;;;;;;;17.88;8.45;;;8.50;99.90;;;;;;4958081;28;20015;-87
2023/12/18 05:39:52;;;;;;;16.33;7.78;;;8.50;99.90;;;;;;4979938;28;20158;-87
2023/12/18 05:42:19;;;;;;;17.90;8.60;;;8.50;99.90;;;;;;4974298;28;20029;-86
2023/12/18 05:44:45;;;;;;;22.58;9.35;;;8.50;99.90;;;;;;4957990;28;20035;-87
2023/12/18 05:47:10;;;;;;;17.02;8.13;;;8.50;99.90;;;;;;4971665;28;20023;-86
2023/12/18 05:49:37;;;;;;;18.13;8.07;;;8.50;99.90;;;;;;4968016;28;20061;-87
2023/12/18 05:52:03;;;;;;;17.40;8.43;;;8.50;99.90;;;;;;4974070;28;20073;-86
2023/12/18 05:54:29;;;;;;;19.90;9.00;;;8.50;99.90;;;;;;4960095;28;20504;-87
2023/12/18 05:56:54;;;;;;;18.33;8.85;;;8.50;99.90;;;;;;4974401;28;20030;-87
2023/12/18 05:59:20;;;;;;;20.17;9.48;;;8.50;99.90;;;;;;4958408;28;20034;-86
2023/12/18 06:01:46;;;;;;;17.30;8.93;;;8.40;99.90;;;;;;4952840;28;20041;-86
2023/12/18 06:04:11;;;;;;;22.75;9.32;;;8.50;99.90;;;;;;4970088;28;20081;-85
2023/12/18 06:06:37;;;;;;;21.88;9.20;;;8.50;99.90;;;;;;4956326;28;20027;-87
2023/12/18 06:09:03;;;;;;;17.45;9.02;;;8.50;99.90;;;;;;4974432;28;20031;-85
2023/12/18 06:11:29;;;;;;;20.52;9.43;;;8.50;99.90;;;;;;4973914;28;20019;-85
2023/12/18 06:13:54;;;;;;;21.40;9.05;;;8.50;99.90;;;;;;4974278;28;20559;-86
2023/12/18 06:16:20;;;;;;;20.33;9.98;;;8.50;99.90;;;;;;4973752;28;20039;-86
2023/12/18 06:18:45;;;;;;;24.50;9.75;;;8.50;99.90;;;;;;4956815;28;20026;-86
2023/12/18 06:21:11;;;;;;;15.98;9.27;;;8.50;99.90;;;;;;4968588;28;20030;-86
2023/12/18 06:23:36;;;;;;;15.23;7.70;;;8.50;99.90;;;;;;4956771;28;20404;-86
2023/12/18 06:26:04;;;;;;;17.20;8.82;;;8.50;99.90;;;;;;4973270;28;20050;-87
2023/12/18 06:28:30;;;;;;;18.58;9.20;;;8.50;99.90;;;;;;4964368;28;20019;-86
2023/12/18 06:30:55;;;;;;;24.23;10.30;;;8.40;99.90;;;;;;4961886;28;20027;-87
2023/12/18 06:33:21;;;;;;;14.73;8.18;;;8.40;99.90;;;;;;4964889;28;20023;-86
2023/12/18 06:35:47;;;;;;;20.88;8.88;;;8.40;99.90;;;;;;4968675;28;20078;-87
2023/12/18 06:38:12;;;;;;;16.83;7.75;;;8.40;99.90;;;;;;4970963;28;20022;-87
2023/12/18 06:40:38;;;;;;;17.50;8.10;;;8.40;99.90;;;;;;4973571;28;20031;-86
2023/12/18 06:43:03;;;;;;;16.88;7.60;;;8.40;99.90;;;;;;4957016;28;20030;-86
2023/12/18 06:45:29;;;;;;;19.55;8.38;;;8.50;99.90;;;;;;4956566;28;20034;-85
2023/12/18 06:47:54;;;;;;;19.50;8.98;;;8.40;99.90;;;;;;4962282;28;20023;-86
2023/12/18 06:50:20;;;;;;;17.65;7.95;;;8.40;99.90;;;;;;4973227;28;20031;-85
2023/12/18 06:52:45;;;;;;;18.45;8.50;;;8.40;99.90;;;;;;4966034;28;20460;-86
2023/12/18 06:55:11;;;;;;;16.40;7.70;;;8.40;99.90;;;;;;4973171;28;20510;-85
2023/12/18 06:57:37;;;;;;;18.55;8.30;;;8.40;99.90;;;;;;4973621;28;20556;-87
2023/12/18 07:00:03;;;;;;;13.85;8.30;;;8.40;99.90;;;;;;4977466;28;20058;-86
2023/12/18 07:02:29;;;;;;;17.88;8.30;;;8.40;99.90;;;;;;4956242;28;20078;-87
2023/12/18 07:04:54;;;;;;;17.38;8.45;;;8.40;99.90;;;;;;4955796;28;20401;-87
2023/12/18 07:07:20;;;;;;;16.80;7.85;;;8.40;99.90;;;;;;4959177;28;20018;-85
2023/12/18 07:09:45;;;;;;;15.23;7.55;;;8.40;99.90;;;;;;4954208;28;20023;-87
2023/12/18 07:12:11;;;;;;;18.90;8.80;;;8.30;99.90;;;;;;4959985;28;20081;-85
2023/12/18 07:14:38;;;;;;;20.67;8.02;;;8.40;99.90;;;;;;4971732;28;20019;-87
2023/12/18 07:17:04;;;;;;;19.23;7.72;;;8.40;99.90;;;;;;4953790;28;20030;-86
2023/12/18 07:19:30;;;;;;;19.23;8.00;;;8.40;99.90;;;;;;4972022;28;20023;-85
2023/12/18 07:21:55;;;;;;;14.15;7.75;;;8.40;99.90;;;;;;4954973;28;20689;-86
2023/12/18 07:24:21;;;;;;;19.05;8.05;;;8.40;99.90;;;;;;4970856;28;20055;-86
2023/12/18 07:26:46;;;;;;;20.27;8.57;;;8.40;99.90;;;;;;4971408;28;20022;-86
2023/12/18 07:29:12;;;;;;;15.45;7.75;;;8.40;99.90;;;;;;4951966;28;20074;-85
2023/12/18 07:31:37;;;;;;;13.48;7.28;;;8.40;99.90;;;;;;4955391;28;20034;-88
2023/12/18 07:34:03;;;;;;;17.55;7.25;;;8.40;99.90;;;;;;4952888;28;20023;-87
2023/12/18 07:36:29;;;;;;;18.80;8.07;;;8.40;99.90;;;;;;4971464;28;20035;-85
2023/12/18 07:38:54;;;;;;;14.43;7.45;;;8.40;99.90;;;;;;4951545;28;20023;-84
2023/12/18 07:41:20;;;;;;;18.83;8.50;;;8.40;99.90;;;;;;4954101;28;20082;-86
2023/12/18 07:43:45;;;;;;;18.40;8.35;;;8.40;99.90;;;;;;4959455;28;20019;-86
2023/12/18 07:46:21;;;;;;;22.45;8.13;;;8.40;99.90;;;;;;4966190;28;20039;-84
2023/12/18 07:48:48;;;;;;;16.33;8.20;;;8.40;99.90;;;;;;4954277;28;20503;-85
2023/12/18 07:51:13;;;;;;;20.45;8.73;;;8.40;99.90;;;;;;4970864;28;20050;-85
2023/12/18 07:53:39;;;;;;;18.50;8.70;;;8.40;99.90;;;;;;4965627;28;20058;-86
2023/12/18 07:56:05;;;;;;;19.67;8.40;;;8.40;99.90;;;;;;4952908;28;20134;-84
2023/12/18 07:58:30;;;;;;;24.45;8.52;;;8.40;99.90;;;;;;4953801;28;20044;-84
2023/12/18 08:00:56;;;;;;;17.33;7.70;;;8.40;99.90;;;;;;4968755;28;20014;-87
2023/12/18 08:03:21;;;;;;;14.40;7.68;;;8.40;99.90;;;;;;4954443;28;20499;-86
2023/12/18 08:05:47;;;;;;;18.13;8.35;;;8.40;99.90;;;;;;4971050;28;20495;-85
2023/12/18 08:08:12;;;;;;;19.55;8.20;;;8.40;99.90;;;;;;4973070;28;20544;-85
2023/12/18 08:10:38;;;;;;;16.60;8.52;;;8.40;99.90;;;;;;4969970;28;20654;-86
2023/12/18 08:13:04;;;;;;;15.85;7.72;;;8.40;99.90;;;;;;4953615;28;20046;-86
2023/12/18 08:15:29;;;;;;;14.98;7.47;;;8.30;99.90;;;;;;4953490;28;20025;-86
2023/12/18 08:17:55;;;;;;;14.57;7.50;;;8.30;99.90;;;;;;4963422;28;20026;-84
2023/12/18 08:20:20;;;;;;;14.48;7.35;;;8.40;99.90;;;;;;4953406;28;20023;-85
2023/12/18 08:22:46;;;;;;;15.85;6.97;;;8.40;99.90;;;;;;4971164;28;20143;-85
2023/12/18 08:25:11;;;;;;;15.65;7.85;;;8.40;99.90;;;;;;4969830;28;20057;-85
2023/12/18 08:27:37;;;;;;;15.60;6.93;;;8.40;99.90;;;;;;4968724;28;20027;-85
2023/12/18 08:30:04;;;;;;;14.68;7.68;;;8.40;99.90;;;;;;4968788;28;20038;-84
2023/12/18 08:32:29;;;;;;;16.10;7.65;;;8.40;99.90;;;;;;4970301;28;20034;-85
2023/12/18 08:34:55;;;;;;;15.18;7.28;;;8.40;99.90;;;;;;4970710;28;20507;-85
2023/12/18 08:37:21;;;;;;;14.73;7.43;;;8.40;99.90;;;;;;4969165;28;20090;-85
2023/12/18 08:39:46;;;;;;;15.80;7.45;;;8.40;99.90;;;;;;4953277;28;20023;-85
2023/12/18 08:42:12;;;;;;;15.43;7.40;;;8.50;99.90;;;;;;4969631;28;20030;-84
2023/12/18 08:44:37;;;;;;;12.38;6.18;;;8.40;99.90;;;;;;4956339;28;20062;-86
2023/12/18 08:47:03;;;;;;;15.25;7.20;;;8.40;99.90;;;;;;4969900;28;20029;-86
2023/12/18 08:49:29;;;;;;;13.75;7.03;;;8.50;99.90;;;;;;4969457;28;20485;-86
2023/12/18 08:51:54;;;;;;;15.30;7.85;;;8.50;99.90;;;;;;4954424;28;20082;-85
2023/12/18 08:54:20;;;;;;;15.30;7.53;;;8.50;99.90;;;;;;4970864;28;20114;-84
2023/12/18 08:56:47;;;;;;;17.48;7.43;;;8.50;99.90;;;;;;4972259;28;20404;-85
2023/12/18 08:59:13;;;;;;;15.05;6.80;;;8.50;99.90;;;;;;4952746;28;20035;-86
2023/12/18 09:01:39;;;;;;;15.65;7.88;;;8.50;99.90;;;;;;4950943;28;20450;-85
2023/12/18 09:04:06;;;;;;;17.83;7.40;;;8.60;99.90;;;;;;4969057;28;20039;-86
2023/12/18 09:06:34;;;;;;;9.45;4.03;;;8.60;99.90;;;;;;4949057;28;20035;-92
2023/12/18 09:09:01;;;;;;;10.93;4.82;;;10.50;99.90;;;;;;4973194;28;20019;-91
2023/12/18 09:11:29;;;;;;;20.27;5.53;;;11.50;99.90;;;;;;4971906;28;20025;-89
2023/12/18 09:13:56;;;;;;;9.40;5.10;;;11.90;99.90;;;;;;4972979;28;20106;-89
2023/12/18 09:16:21;;;;;;;10.43;5.38;;;12.00;99.90;;;;;;4971654;28;20023;-89
2023/12/18 09:18:47;;;;;;;11.68;5.38;;;11.90;99.90;;;;;;4972396;28;20046;-89
2023/12/18 09:21:13;;;;;;;10.55;5.60;;;12.00;99.90;;;;;;4954488;28;20027;-90
2023/12/18 09:23:39;;;;;;;12.38;5.68;;;12.10;96.50;;;;;;4955758;28;20038;-88
2023/12/18 09:26:05;;;;;;;12.30;6.47;;;12.00;95.60;;;;;;4955022;28;20042;-93
2023/12/18 09:28:31;;;;;;;11.82;6.05;;;11.80;95.00;;;;;;4956054;28;20474;-92
2023/12/18 09:30:56;;;;;;;12.13;6.68;;;11.70;93.80;;;;;;4972574;28;20031;-91
2023/12/18 09:33:22;;;;;;;10.63;6.30;;;11.70;93.20;;;;;;4972244;28;20023;-90
2023/12/18 09:35:47;;;;;;;13.63;6.25;;;11.60;92.10;;;;;;4956654;28;20023;-88
2023/12/18 09:38:13;;;;;;;12.80;6.90;;;11.60;91.80;;;;;;4957092;28;20031;-87
2023/12/18 09:40:45;;;;;;;16.27;6.93;;;11.30;91.30;;;;;;4970425;28;20017;-84
2023/12/18 09:43:16;;;;;;;12.10;6.22;;;11.50;91.10;;;;;;4972790;28;20031;-94
2023/12/18 09:45:44;;;;;;;10.32;5.70;;;11.50;90.90;;;;;;4970550;28;20507;-91
2023/12/18 09:48:10;;;;;;;10.68;5.50;;;11.60;90.20;;;;;;4980215;28;20054;-90
2023/12/18 09:50:36;;;;;;;10.50;5.82;;;11.70;89.70;;;;;;4976204;28;20066;-91
2023/12/18 09:53:09;;;;;;;14.88;5.85;;;11.80;90.30;;;;;;4975340;28;20019;-91
2023/12/18 09:55:35;;;;;;;18.67;6.05;;;11.90;90.00;;;;;;4949631;28;20027;-85
2023/12/18 09:58:01;;;;;;;14.98;6.97;;;11.90;90.20;;;;;;4952413;28;20035;-89
2023/12/18 10:00:27;;;;;;;15.55;6.95;;;11.60;90.70;;;;;;4972549;28;20531;-88
2023/12/18 10:02:57;;;;;;;34.50;7.55;;;11.80;90.30;;;;;;4959590;28;20117;-88
2023/12/18 10:05:22;;;;;;;40.97;7.47;;;11.90;91.70;;;;;;4965562;28;20113;-92
2023/12/18 10:07:48;;;;;;;14.27;6.10;;;12.10;91.90;;;;;;4953804;28;20054;-93
2023/12/18 10:10:15;;;;;;;12.77;6.22;;;12.10;90.70;;;;;;4958719;28;20023;-94
2023/12/18 10:12:41;;;;;;;12.05;6.10;;;12.10;90.50;;;;;;4960364;28;20416;-92
2023/12/18 10:15:09;;;;;;;12.65;6.20;;;12.10;90.60;;;;;;4958448;28;20023;-92
2023/12/18 10:17:37;;;;;;;10.77;5.97;;;12.10;90.00;;;;;;4971045;28;20023;-93
2023/12/18 10:20:03;;;;;;;14.65;7.53;;;12.00;89.20;;;;;;4975790;28;20023;-90
2023/12/18 10:22:29;;;;;;;14.70;7.38;;;12.00;89.80;;;;;;4962770;28;20031;-92
2023/12/18 10:24:58;;;;;;;15.95;7.88;;;12.00;89.00;;;;;;4970727;28;20023;-92
2023/12/18 10:27:24;;;;;;;16.10;8.07;;;11.90;89.10;;;;;;4974634;28;20046;-93
2023/12/18 10:29:49;;;;;;;14.77;7.30;;;12.00;89.60;;;;;;4975546;28;20120;-91
2023/12/18 10:32:16;;;;;;;15.70;7.25;;;12.10;88.70;;;;;;4974624;28;20027;-89
2023/12/18 10:34:43;;;;;;;14.73;6.88;;;12.10;89.10;;;;;;4957529;28;20015;-88
2023/12/18 10:37:11;;;;;;;15.60;7.90;;;12.20;86.80;;;;;;4973859;28;20403;-87
2023/12/18 10:39:41;;;;;;;15.65;7.32;;;12.20;86.50;;;;;;4958142;28;20078;-88
2023/12/18 10:42:18;;;;;;;15.70;7.60;;;12.30;86.20;;;;;;4954416;28;20030;-87
2023/12/18 10:44:44;;;;;;;15.13;7.32;;;12.30;86.40;;;;;;4960585;28;20030;-86
2023/12/18 10:47:12;;;;;;;12.25;6.43;;;12.40;85.60;;;;;;4972978;28;20023;-87
2023/12/18 10:49:40;;;;;;;13.80;6.00;;;12.40;86.10;;;;;;4974181;28;20025;-88
2023/12/18 10:52:07;;;;;;;11.63;6.70;;;12.30;86.00;;;;;;4955936;28;20046;-86
2023/12/18 10:54:33;;;;;;;14.00;7.18;;;12.30;86.30;;;;;;4971711;28;20531;-88
2023/12/18 10:57:00;;;;;;;13.85;6.57;;;12.30;86.00;;;;;;4969851;28;20039;-86
2023/12/18 10:59:28;;;;;;;12.93;6.75;;;12.30;86.20;;;;;;4953813;28;20102;-86
2023/12/18 11:01:54;;;;;;;18.50;7.40;;;12.20;86.60;;;;;;4970209;28;20015;-88
2023/12/18 11:04:22;;;;;;;15.70;6.82;;;12.30;86.10;;;;;;4970286;28;20473;-86
2023/12/18 11:06:48;;;;;;;13.15;6.65;;;12.30;86.30;;;;;;4954610;28;20115;-87
2023/12/18 11:09:14;;;;;;;15.10;7.10;;;12.30;87.30;;;;;;4954255;28;20101;-86
2023/12/18 11:11:41;;;;;;;16.00;7.50;;;12.30;87.20;;;;;;4970664;28;20480;-85
2023/12/18 11:14:52;;;;;;;15.52;7.85;;;12.30;87.30;;;;;;4970892;28;20130;-86
2023/12/18 11:17:56;;;;;;;13.70;7.88;;;12.40;87.90;;;;;;4937854;28;20694;-86
2023/12/18 11:20:34;;;;;;;15.70;7.75;;;12.40;86.70;;;;;;4970863;28;20023;-87
2023/12/18 11:23:00;;;;;;;15.30;7.88;;;12.40;86.60;;;;;;4969455;28;20019;-85
2023/12/18 11:25:36;;;;;;;13.63;7.57;;;12.40;87.10;;;;;;4966493;28;20694;-87
2023/12/18 11:28:04;;;;;;;16.92;8.73;;;12.40;86.90;;;;;;4967420;28;20031;-86
2023/12/18 11:30:31;;;;;;;19.77;7.85;;;12.30;87.00;;;;;;4967288;28;20031;-86
2023/12/18 11:32:58;;;;;;;18.85;8.02;;;12.30;86.80;;;;;;4972590;28;20022;-86
2023/12/18 11:35:33;;;;;;;25.77;9.35;;;12.30;87.20;;;;;;4970785;28;20027;-87
2023/12/18 11:38:06;;;;;;;18.02;8.57;;;12.30;87.70;;;;;;4949882;28;20026;-87
2023/12/18 11:40:34;;;;;;;16.02;8.10;;;12.30;87.50;;;;;;4951492;28;20105;-86
2023/12/18 11:43:00;;;;;;;18.65;9.05;;;12.30;87.00;;;;;;4965670;28;20057;-87
2023/12/18 11:45:26;;;;;;;20.00;9.10;;;12.20;86.40;;;;;;4964656;28;20446;-88
2023/12/18 11:47:52;;;;;;;18.95;8.52;;;12.20;86.90;;;;;;4963108;28;20034;-87
2023/12/18 11:50:24;;;;;;;19.73;8.30;;;12.40;85.60;;;;;;4967487;28;20031;-88
2023/12/18 11:52:50;;;;;;;16.25;7.82;;;12.40;84.90;;;;;;4952028;28;20485;-86
2023/12/18 11:55:45;;;;;;;14.75;7.95;;;12.40;85.80;;;;;;4952810;28;20042;-85
2023/12/18 11:58:11;;;;;;;19.42;8.48;;;12.40;85.40;;;;;;4965364;28;20023;-86
2023/12/18 12:00:38;;;;;;;14.93;8.23;;;12.30;86.40;;;;;;4967303;28;20025;-87
2023/12/18 12:03:04;;;;;;;16.67;7.78;;;12.30;86.10;;;;;;4952102;28;20027;-85
2023/12/18 12:05:31;;;;;;;21.48;9.93;;;12.20;86.60;;;;;;4954954;28;20030;-83
2023/12/18 12:07:58;;;;;;;18.92;9.25;;;10.20;82.90;;;;;;4955122;28;20053;-84
2023/12/18 12:10:24;;;;;;;20.98;9.30;;;9.00;92.60;;;;;;4964109;28;20042;-83
2023/12/18 12:12:57;;;;;;;17.65;9.35;;;8.60;96.00;;;;;;4963259;28;20101;-82
2023/12/18 12:15:24;;;;;;;19.17;9.73;;;8.50;98.00;;;;;;4950918;28;20519;-83
2023/12/18 12:18:04;;;;;;;20.30;8.45;;;8.40;99.70;;;;;;4960059;28;20631;-83
2023/12/18 12:20:30;;;;;;;16.95;8.35;;;8.30;99.80;;;;;;4950582;28;20023;-83
2023/12/18 12:22:57;;;;;;;17.98;8.45;;;8.30;99.90;;;;;;4966892;28;20031;-83
2023/12/18 12:25:23;;;;;;;19.48;8.88;;;8.30;99.90;;;;;;4950692;28;20085;-83
2023/12/18 12:27:49;;;;;;;18.63;7.78;;;8.30;99.90;;;;;;4951632;28;20026;-81
2023/12/18 12:30:16;;;;;;;21.42;8.98;;;8.20;99.90;;;;;;4953549;28;20058;-84
2023/12/18 12:32:42;;;;;;;17.48;8.30;;;8.20;99.90;;;;;;4964854;28;20073;-82
2023/12/18 12:35:08;;;;;;;16.27;7.93;;;8.20;99.90;;;;;;4965001;28;20077;-83
2023/12/18 12:37:33;;;;;;;21.90;8.70;;;8.20;99.90;;;;;;4962855;28;20436;-82
2023/12/18 12:40:06;;;;;;;18.70;8.55;;;8.20;99.90;;;;;;4951663;28;20118;-82